Time;durP1;ratioP1;P1;durP2;ratioP2;P2;SDS_P1;SDS_P2;PMS_P1;PMS_P2;Temp;Humidity;BMP_temperature;BMP_pressure;BME280_temperature;BME280_humidity;BME280_pressure;Samples;Min_cycle;Max_cycle;Signal;HPM_P1;HPM_P2
2022/12/17 13:06:56;;;;;;;;;;;;;;;-0.99;96.67;102573.25;5087033;28;19930;-59
2022/12/17 13:09:29;;;;;;;;;;;;;;;-1.02;96.40;102581.16;5043917;28;19999;-59
2022/12/17 13:12:00;;;;;;;;;;;;;;;-1.08;96.27;102589.22;5078442;28;20394;-59
2022/12/17 13:14:28;;;;;;;;;;;;;;;-1.15;96.04;102586.88;5089914;28;19917;-58
2022/12/17 13:17:11;;;;;;;;;;;;;;;-1.25;95.87;102583.72;5090247;28;19924;-59
2022/12/17 13:19:38;;;;;;;;;;;;;;;-1.26;95.97;102592.44;5087988;28;19912;-57
2022/12/17 13:22:09;;;;;;;;;;;;;;;-1.30;95.78;102585.63;5090236;28;19980;-59
2022/12/17 13:24:35;;;;;;;;;;;;;;;-1.35;95.86;102585.78;5079576;28;19924;-57
2022/12/17 13:27:00;;;;;;;;;;;;;;;-1.42;95.69;102580.84;5086108;28;20400;-59
2022/12/17 13:29:31;;;;;;;;;;;;;;;-1.44;95.74;102580.03;5086579;28;19924;-58
2022/12/17 13:31:59;;;;;;;;;;;;;;;-1.48;95.71;102581.00;5091337;28;19935;-60
2022/12/17 13:34:25;;;;;;;;;;;;;;;-1.52;95.81;102577.66;5086735;28;19934;-59
2022/12/17 13:36:57;;;;;;;;;;;;;;;-1.52;95.87;102582.00;5087806;28;19951;-58
2022/12/17 13:39:22;;;;;;;;;;;;;;;-1.51;95.95;102581.13;5084416;28;20469;-57
2022/12/17 13:41:51;;;;;;;;;;;;;;;-1.49;96.10;102577.56;5081762;28;20338;-58
2022/12/17 13:44:21;;;;;;;;;;;;;;;-1.46;95.90;102584.41;5078365;28;19921;-59
2022/12/17 13:46:47;;;;;;;;;;;;;;;-1.44;96.02;102582.63;5088302;28;19938;-56
2022/12/17 13:49:17;;;;;;;;;;;;;;;-1.44;95.94;102573.06;5084482;28;19924;-60
2022/12/17 13:51:43;;;;;;;;;;;;;;;-1.41;96.07;102577.31;5086319;28;19981;-59
2022/12/17 13:54:16;;;;;;;;;;;;;;;-1.38;95.94;102583.28;5086672;28;19916;-57
2022/12/17 13:56:42;;;;;;;;;;;;;;;-1.37;95.87;102576.31;5084992;28;19981;-58
2022/12/17 13:59:15;;;;;;;;;;;;;;;-1.35;95.92;102575.38;5086568;28;19920;-59
2022/12/17 14:01:48;;;;;;;;;;;;;;;-1.34;95.92;102579.66;5086746;28;19916;-57
2022/12/17 14:04:24;;;;;;;;;;;;;;;-1.36;95.84;102578.03;5081662;28;19962;-61
2022/12/17 14:06:49;;;;;;;;;;;;;;;-1.35;95.87;102580.56;5094085;28;20358;-58
2022/12/17 14:09:18;;;;;;;;;;;;;;;-1.35;95.78;102569.28;5075707;28;20579;-58
2022/12/17 14:14:32;;;;;;;;;;;;;;;-1.46;95.73;102587.03;5086816;28;19922;-58
2022/12/17 14:16:58;;;;;;;;;;;;;;;-1.55;95.46;102585.56;5084989;28;20399;-58
2022/12/17 14:19:24;;;;;;;;;;;;;;;-1.68;95.49;102585.13;5082473;28;19924;-60
2022/12/17 14:21:50;;;;;;;;;;;;;;;-1.71;95.52;102587.00;5085032;28;19942;-58
2022/12/17 14:24:17;;;;;;;;;;;;;;;-1.73;95.68;102588.78;5089557;28;19923;-58
2022/12/17 14:26:58;;;;;;;;;;;;;;;-1.77;95.75;102595.81;5077921;28;19998;-56
2022/12/17 14:29:24;;;;;;;;;;;;;;;-1.83;95.82;102598.63;5088220;28;19922;-59
2022/12/17 14:31:51;;;;;;;;;;;;;;;-1.88;95.86;102592.72;5087268;28;19920;-59
2022/12/17 14:34:16;;;;;;;;;;;;;;;-1.89;95.99;102596.22;5095515;28;20011;-56
2022/12/17 14:36:42;;;;;;;;;;;;;;;-1.90;96.10;102599.72;5079044;28;20007;-59
2022/12/17 14:39:16;;;;;;;;;;;;;;;-1.92;95.99;102588.50;5087787;28;19912;-62
2022/12/17 14:44:27;;;;;;;;;;;;;;;-1.81;95.95;102602.03;5085555;28;20334;-57
2022/12/17 14:47:04;;;;;;;;;;;;;;;-1.88;96.03;102603.97;5089262;28;19934;-56
2022/12/17 14:49:29;;;;;;;;;;;;;;;-1.90;95.81;102599.72;5078337;28;19919;-61
2022/12/17 14:51:55;;;;;;;;;;;;;;;-1.90;95.76;102600.56;5086243;28;20019;-58
2022/12/17 14:54:24;;;;;;;;;;;;;;;-1.85;95.84;102602.19;5080378;28;20355;-58
2022/12/17 14:56:50;;;;;;;;;;;;;;;-1.85;95.75;102610.84;5085336;28;19934;-59
2022/12/17 14:59:22;;;;;;;;;;;;;;;-1.90;95.78;102618.78;5082803;28;19916;-59
2022/12/17 15:01:47;;;;;;;;;;;;;;;-1.99;95.75;102619.09;5080201;28;19923;-58
2022/12/17 15:04:13;;;;;;;;;;;;;;;-2.10;95.47;102622.88;5085357;28;20303;-61
2022/12/17 15:06:38;;;;;;;;;;;;;;;-2.22;95.61;102624.97;5089943;28;19927;-55
2022/12/17 15:09:03;;;;;;;;;;;;;;;-2.26;95.59;102623.34;5078944;28;19950;-59
2022/12/17 15:11:28;;;;;;;;;;;;;;;-2.28;95.80;102619.94;5081796;28;19973;-60
2022/12/17 15:13:54;;;;;;;;;;;;;;;-2.28;95.97;102622.56;5082897;28;19913;-58
2022/12/17 15:16:19;;;;;;;;;;;;;;;-2.25;95.92;102622.47;5097094;28;19927;-57
2022/12/17 15:18:45;;;;;;;;;;;;;;;-2.21;95.86;102628.41;5095324;28;19912;-56
2022/12/17 15:21:10;;;;;;;;;;;;;;;-2.19;95.98;102637.88;5086058;28;19943;-57
2022/12/17 15:23:37;;;;;;;;;;;;;;;-2.16;95.85;102636.94;5091802;28;19916;-56
2022/12/17 15:26:03;;;;;;;;;;;;;;;-2.14;95.72;102649.91;5081157;28;19916;-59
2022/12/17 15:28:28;;;;;;;;;;;;;;;-2.21;95.64;102631.88;5085951;28;19922;-58
2022/12/17 15:30:53;;;;;;;;;;;;;;;-2.17;95.74;102645.66;5087672;28;19916;-58
2022/12/17 15:33:18;;;;;;;;;;;;;;;-2.19;95.68;102650.03;5082729;28;20269;-58
2022/12/17 15:35:44;;;;;;;;;;;;;;;-2.20;95.72;102663.97;5086674;28;20007;-56
2022/12/17 15:38:10;;;;;;;;;;;;;;;-2.22;95.88;102657.94;5085626;28;19966;-57
2022/12/17 15:40:36;;;;;;;;;;;;;;;-2.33;95.79;102662.56;5086095;28;19916;-60
2022/12/17 15:43:10;;;;;;;;;;;;;;;-2.43;95.91;102661.13;5083005;28;19920;-61
2022/12/17 15:45:40;;;;;;;;;;;;;;;-2.50;96.12;102656.13;5088229;28;19916;-60
2022/12/17 15:48:05;;;;;;;;;;;;;;;-2.48;96.22;102656.06;5091696;28;20360;-58
2022/12/17 15:50:30;;;;;;;;;;;;;;;-2.43;96.15;102648.13;5087056;28;19916;-60
2022/12/17 15:52:55;;;;;;;;;;;;;;;-2.37;96.18;102663.56;5088793;28;19916;-60
2022/12/17 15:55:21;;;;;;;;;;;;;;;-2.35;96.04;102654.81;5089558;28;19920;-57
2022/12/17 15:57:46;;;;;;;;;;;;;;;-2.32;95.98;102656.47;5089448;28;19956;-56
2022/12/17 16:00:11;;;;;;;;;;;;;;;-2.33;96.01;102660.81;5089610;28;19916;-58
2022/12/17 16:02:37;;;;;;;;;;;;;;;-2.33;96.27;102663.44;5085372;28;19912;-59
2022/12/17 16:05:03;;;;;;;;;;;;;;;-2.32;95.98;102665.13;5086408;28;19920;-59
2022/12/17 16:07:28;;;;;;;;;;;;;;;-2.30;95.92;102658.16;5091137;28;19923;-60
2022/12/17 16:09:53;;;;;;;;;;;;;;;-2.29;96.00;102664.22;5088592;28;20453;-58
2022/12/17 16:12:18;;;;;;;;;;;;;;;-2.31;95.97;102666.88;5085645;28;19977;-59
2022/12/17 16:14:44;;;;;;;;;;;;;;;-2.29;96.02;102675.50;5085939;28;19912;-59
2022/12/17 16:17:09;;;;;;;;;;;;;;;-2.28;95.96;102677.19;5089003;28;19965;-62
2022/12/17 16:19:34;;;;;;;;;;;;;;;-2.28;95.93;102672.00;5075834;28;20330;-59
2022/12/17 16:22:00;;;;;;;;;;;;;;;-2.30;95.93;102673.78;5089507;28;19920;-56
2022/12/17 16:24:25;;;;;;;;;;;;;;;-2.36;95.71;102668.72;5082381;28;20298;-57
2022/12/17 16:26:50;;;;;;;;;;;;;;;-2.41;95.88;102673.22;5081606;28;20524;-57
2022/12/17 16:29:15;;;;;;;;;;;;;;;-2.43;95.82;102676.75;5086309;28;19913;-57
2022/12/17 16:31:40;;;;;;;;;;;;;;;-2.47;96.00;102680.34;5085351;28;20007;-59
2022/12/17 16:34:09;;;;;;;;;;;;;;;-2.57;95.89;102683.19;5085597;28;19956;-58
2022/12/17 16:36:34;;;;;;;;;;;;;;;-2.63;95.85;102685.06;5086284;28;19963;-58
2022/12/17 16:39:00;;;;;;;;;;;;;;;-2.68;95.87;102681.75;5088103;28;19951;-59
2022/12/17 16:41:25;;;;;;;;;;;;;;;-2.69;95.83;102686.09;5084042;28;20014;-61
2022/12/17 16:43:50;;;;;;;;;;;;;;;-2.71;95.95;102679.22;5079815;28;19935;-57
2022/12/17 16:46:32;;;;;;;;;;;;;;;-2.71;95.86;102676.63;5081207;28;19920;-59
2022/12/17 16:49:02;;;;;;;;;;;;;;;-2.70;95.82;102670.53;5085070;28;19912;-57
2022/12/17 16:51:27;;;;;;;;;;;;;;;-2.72;95.80;102672.31;5087998;28;19922;-59
2022/12/17 16:53:53;;;;;;;;;;;;;;;-2.76;95.86;102676.75;5087344;28;19922;-59
2022/12/17 16:56:19;;;;;;;;;;;;;;;-2.79;95.89;102689.84;5097685;28;20008;-59
2022/12/17 16:58:45;;;;;;;;;;;;;;;-2.89;95.95;102693.53;5086017;28;20544;-56
2022/12/17 17:01:10;;;;;;;;;;;;;;;-2.98;95.99;102683.41;5087104;28;19920;-58
2022/12/17 17:03:42;;;;;;;;;;;;;;;-3.01;95.86;102696.47;5085982;28;20450;-60
2022/12/17 17:06:08;;;;;;;;;;;;;;;-3.01;95.88;102681.72;5085617;28;20314;-59
2022/12/17 17:08:34;;;;;;;;;;;;;;;-3.01;95.96;102680.88;5080441;28;19970;-57
2022/12/17 17:11:06;;;;;;;;;;;;;;;-3.01;96.08;102684.31;5084368;28;19923;-56
2022/12/17 17:13:31;;;;;;;;;;;;;;;-3.01;95.93;102686.94;5087495;28;19923;-58
2022/12/17 17:15:57;;;;;;;;;;;;;;;-3.01;96.01;102684.31;5086142;28;20291;-59
2022/12/17 17:18:22;;;;;;;;;;;;;;;-3.01;96.12;102683.47;5088468;28;20400;-59
2022/12/17 17:20:47;;;;;;;;;;;;;;;-3.01;96.21;102681.72;5088078;28;19916;-59
2022/12/17 17:23:12;;;;;;;;;;;;;;;-3.00;96.26;102690.38;5090855;28;19950;-60
2022/12/17 17:25:37;;;;;;;;;;;;;;;-3.07;96.36;102689.69;5084268;28;19916;-58
2022/12/17 17:28:02;;;;;;;;;;;;;;;-3.10;96.29;102688.91;5097237;28;19978;-57
2022/12/17 17:30:28;;;;;;;;;;;;;;;-3.12;96.52;102689.81;5079483;28;19912;-59
2022/12/17 17:32:53;;;;;;;;;;;;;;;-3.12;96.69;102691.53;5086665;28;19923;-59
2022/12/17 17:35:18;;;;;;;;;;;;;;;-3.14;96.66;102691.59;5090813;28;19920;-59
2022/12/17 17:37:43;;;;;;;;;;;;;;;-3.16;96.88;102700.31;5083992;28;19920;-56
2022/12/17 17:40:09;;;;;;;;;;;;;;;-3.21;97.11;102710.78;5081764;28;19916;-59
2022/12/17 17:42:34;;;;;;;;;;;;;;;-3.25;97.23;102709.16;5081190;28;19924;-60
2022/12/17 17:44:59;;;;;;;;;;;;;;;-3.29;97.43;102714.47;5086073;28;19924;-57
2022/12/17 17:47:25;;;;;;;;;;;;;;;-3.38;97.40;102705.16;5084338;28;19947;-59
2022/12/17 17:49:50;;;;;;;;;;;;;;;-3.48;97.61;102706.22;5080455;28;20011;-59
2022/12/17 17:52:16;;;;;;;;;;;;;;;-3.53;97.67;102715.88;5090459;28;19944;-58
2022/12/17 17:54:41;;;;;;;;;;;;;;;-3.59;97.99;102709.06;5091711;28;19912;-57
2022/12/17 17:57:07;;;;;;;;;;;;;;;-3.64;97.90;102699.69;5086517;28;19924;-58
2022/12/17 17:59:32;;;;;;;;;;;;;;;-3.63;98.16;102699.66;5087971;28;19916;-56
2022/12/17 18:01:58;;;;;;;;;;;;;;;-3.59;98.17;102706.47;5084476;28;19923;-58
2022/12/17 18:04:23;;;;;;;;;;;;;;;-3.59;98.42;102701.28;5090310;28;19916;-58
2022/12/17 18:06:48;;;;;;;;;;;;;;;-3.60;98.47;102703.91;5090065;28;20419;-59
2022/12/17 18:09:14;;;;;;;;;;;;;;;-3.59;98.74;102703.03;5084610;28;19916;-58
2022/12/17 18:11:40;;;;;;;;;;;;;;;-3.53;98.68;102708.94;5082486;28;19916;-58
2022/12/17 18:14:06;;;;;;;;;;;;;;;-3.44;98.57;102713.09;5088970;28;20002;-59
2022/12/17 18:16:36;;;;;;;;;;;;;;;-3.35;98.59;102712.00;5087339;28;20415;-60
2022/12/17 18:19:10;;;;;;;;;;;;;;;-3.26;98.28;102720.44;5077618;28;19917;-62
2022/12/17 18:21:37;;;;;;;;;;;;;;;-3.22;98.16;102718.63;5084395;28;19916;-58
2022/12/17 18:24:04;;;;;;;;;;;;;;;-3.23;97.87;102722.09;5085250;28;20344;-60
2022/12/17 18:26:31;;;;;;;;;;;;;;;-3.21;97.85;102718.56;5084180;28;19938;-59
2022/12/17 18:29:05;;;;;;;;;;;;;;;-3.22;97.52;102719.47;5089825;28;19923;-57
2022/12/17 18:31:30;;;;;;;;;;;;;;;-3.21;97.30;102718.56;5080359;28;20657;-56
2022/12/17 18:33:58;;;;;;;;;;;;;;;-3.20;97.24;102720.28;5087457;28;20010;-57
2022/12/17 18:36:30;;;;;;;;;;;;;;;-3.26;97.06;102715.25;5090311;28;19931;-58
2022/12/17 18:39:04;;;;;;;;;;;;;;;-3.30;97.16;102715.34;5087173;28;19934;-58
2022/12/17 18:44:14;;;;;;;;;;;;;;;-3.36;97.18;102705.97;5079194;28;20003;-56
2022/12/17 18:46:39;;;;;;;;;;;;;;;-3.34;97.22;102706.78;5083792;28;20014;-59
2022/12/17 18:49:06;;;;;;;;;;;;;;;-3.30;97.16;102702.38;5085809;28;19916;-59
2022/12/17 18:51:36;;;;;;;;;;;;;;;-3.28;96.97;102711.81;5095743;28;20482;-56
2022/12/17 18:54:01;;;;;;;;;;;;;;;-3.28;96.91;102706.63;5085484;28;19920;-59
2022/12/17 18:56:27;;;;;;;;;;;;;;;-3.32;96.83;102709.34;5087317;28;19920;-61
2022/12/17 18:58:53;;;;;;;;;;;;;;;-3.33;96.84;102712.81;5078978;28;19931;-56
2022/12/17 19:01:25;;;;;;;;;;;;;;;-3.35;96.80;102710.25;5081578;28;19916;-56
2022/12/17 19:03:51;;;;;;;;;;;;;;;-3.38;96.67;102712.94;5082909;28;19981;-59
2022/12/17 19:06:17;;;;;;;;;;;;;;;-3.41;96.53;102712.16;5087797;28;20022;-57
2022/12/17 19:08:42;;;;;;;;;;;;;;;-3.40;96.73;102713.88;5083654;28;19942;-56
2022/12/17 19:11:08;;;;;;;;;;;;;;;-3.38;96.71;102712.09;5089186;28;19916;-58
2022/12/17 19:13:34;;;;;;;;;;;;;;;-3.36;96.59;102720.69;5081443;28;19916;-60
2022/12/17 19:16:03;;;;;;;;;;;;;;;-3.37;96.64;102721.59;5093857;28;20551;-60
2022/12/17 19:18:28;;;;;;;;;;;;;;;-3.40;96.51;102734.66;5078438;28;19916;-59
2022/12/17 19:20:57;;;;;;;;;;;;;;;-3.45;96.48;102738.19;5082005;28;19920;-56
2022/12/17 19:23:22;;;;;;;;;;;;;;;-3.42;96.51;102736.41;5086328;28;19997;-57
2022/12/17 19:25:47;;;;;;;;;;;;;;;-3.46;96.36;102739.09;5076931;28;19974;-57
2022/12/17 19:28:12;;;;;;;;;;;;;;;-3.45;96.42;102740.81;5098769;28;19920;-60
2022/12/17 19:30:38;;;;;;;;;;;;;;;-3.50;96.24;102734.81;5082957;28;19920;-59
2022/12/17 19:33:06;;;;;;;;;;;;;;;-3.54;96.19;102735.78;5079964;28;19928;-59
2022/12/17 19:35:33;;;;;;;;;;;;;;;-3.58;96.20;102736.75;5087969;28;19947;-56
2022/12/17 19:37:58;;;;;;;;;;;;;;;-3.61;96.27;102744.59;5078929;28;20031;-57
2022/12/17 19:40:24;;;;;;;;;;;;;;;-3.61;96.34;102755.00;5082919;28;20035;-57
2022/12/17 19:42:49;;;;;;;;;;;;;;;-3.59;96.20;102750.63;5084254;28;19912;-56
2022/12/17 19:45:14;;;;;;;;;;;;;;;-3.58;96.41;102752.31;5086050;28;19955;-58
2022/12/17 19:47:39;;;;;;;;;;;;;;;-3.61;96.31;102755.00;5086340;28;19916;-54
2022/12/17 19:50:04;;;;;;;;;;;;;;;-3.63;96.18;102751.56;5084261;28;19970;-57
2022/12/17 19:52:30;;;;;;;;;;;;;;;-3.67;96.25;102749.94;5078181;28;19923;-54
2022/12/17 19:54:55;;;;;;;;;;;;;;;-3.69;96.18;102750.84;5084317;28;19927;-56
2022/12/17 19:57:20;;;;;;;;;;;;;;;-3.68;96.25;102755.16;5088197;28;19935;-54
2022/12/17 19:59:45;;;;;;;;;;;;;;;-3.67;96.36;102760.31;5086126;28;19916;-57
2022/12/17 20:02:10;;;;;;;;;;;;;;;-3.66;96.35;102758.56;5083889;28;20007;-60
2022/12/17 20:04:36;;;;;;;;;;;;;;;-3.66;96.34;102772.41;5079151;28;19959;-59
2022/12/17 20:07:01;;;;;;;;;;;;;;;-3.70;96.59;102775.97;5085528;28;19962;-57
2022/12/17 20:09:26;;;;;;;;;;;;;;;-3.75;96.65;102772.63;5089387;28;19927;-53
2022/12/17 20:11:51;;;;;;;;;;;;;;;-3.76;96.63;102773.47;5076554;28;19995;-59
2022/12/17 20:14:19;;;;;;;;;;;;;;;-3.73;96.76;102773.44;5085745;28;19923;-59
2022/12/17 20:16:56;;;;;;;;;;;;;;;-3.68;96.76;102773.34;5082293;28;19932;-60
2022/12/17 20:19:23;;;;;;;;;;;;;;;-3.62;96.93;102774.06;5088750;28;19919;-60
2022/12/17 20:21:49;;;;;;;;;;;;;;;-3.58;96.73;102786.06;5084901;28;19916;-60
2022/12/17 20:24:15;;;;;;;;;;;;;;;-3.58;96.71;102787.81;5080133;28;19920;-57
2022/12/17 20:26:41;;;;;;;;;;;;;;;-3.61;96.50;102796.53;5079948;28;19916;-59
2022/12/17 20:29:06;;;;;;;;;;;;;;;-3.58;96.53;102788.69;5083903;28;19965;-57
2022/12/17 20:31:32;;;;;;;;;;;;;;;-3.58;96.48;102778.28;5084023;28;19969;-58
2022/12/17 20:34:02;;;;;;;;;;;;;;;-3.56;96.45;102773.06;5083434;28;19920;-59
2022/12/17 20:36:27;;;;;;;;;;;;;;;-3.58;96.46;102778.28;5085521;28;20391;-58
2022/12/17 20:38:52;;;;;;;;;;;;;;;-3.57;96.38;102777.41;5086766;28;19923;-54
2022/12/17 20:41:22;;;;;;;;;;;;;;;-3.60;96.41;102767.09;5076206;28;20022;-58
2022/12/17 20:43:48;;;;;;;;;;;;;;;-3.62;96.41;102768.00;5089336;28;20523;-57
2022/12/17 20:46:13;;;;;;;;;;;;;;;-3.62;96.49;102768.00;5083680;28;19924;-56
2022/12/17 20:48:40;;;;;;;;;;;;;;;-3.64;96.45;102772.38;5087663;28;19986;-60
2022/12/17 20:51:09;;;;;;;;;;;;;;;-3.66;96.45;102764.63;5081039;28;20440;-57
2022/12/17 20:53:35;;;;;;;;;;;;;;;-3.67;96.46;102760.31;5084270;28;20387;-59
2022/12/17 20:56:04;;;;;;;;;;;;;;;-3.75;96.32;102759.63;5086984;28;19916;-57
2022/12/17 20:58:29;;;;;;;;;;;;;;;-3.77;96.27;102756.19;5086160;28;19920;-56
2022/12/17 21:01:08;;;;;;;;;;;;;;;-3.79;96.26;102763.16;5083973;28;20311;-58
2022/12/17 21:03:34;;;;;;;;;;;;;;;-3.81;96.06;102759.72;5085581;28;19916;-59
2022/12/17 21:06:03;;;;;;;;;;;;;;;-3.84;96.08;102754.59;5085692;28;19965;-60
2022/12/17 21:08:28;;;;;;;;;;;;;;;-3.84;96.12;102759.81;5082677;28;19916;-55
2022/12/17 21:10:56;;;;;;;;;;;;;;;-3.84;96.22;102762.41;5084898;28;20300;-58
2022/12/17 21:13:27;;;;;;;;;;;;;;;-3.85;96.20;102753.75;5085116;28;19924;-58
2022/12/17 21:15:53;;;;;;;;;;;;;;;-3.82;96.36;102758.88;5084966;28;19916;-59
2022/12/17 21:18:18;;;;;;;;;;;;;;;-3.79;96.36;102760.56;5084420;28;20354;-56
2022/12/17 21:20:52;;;;;;;;;;;;;;;-3.84;96.27;102760.66;5079220;28;20361;-59
2022/12/17 21:23:18;;;;;;;;;;;;;;;-3.85;96.12;102765.88;5081602;28;21553;-57
2022/12/17 21:25:43;;;;;;;;;;;;;;;-3.91;95.96;102766.00;5082425;28;19923;-58
2022/12/17 21:28:08;;;;;;;;;;;;;;;-3.94;96.02;102768.66;5104555;28;19912;-55
2022/12/17 21:30:34;;;;;;;;;;;;;;;-3.97;95.84;102776.50;5083541;28;19945;-61
2022/12/17 21:32:59;;;;;;;;;;;;;;;-4.02;95.87;102780.94;5081234;28;20410;-58
2022/12/17 21:35:25;;;;;;;;;;;;;;;-4.07;95.83;102791.38;5091220;28;19955;-55
2022/12/17 21:37:50;;;;;;;;;;;;;;;-4.12;95.79;102782.84;5085978;28;19920;-56
2022/12/17 21:40:15;;;;;;;;;;;;;;;-4.16;95.89;102779.44;5083534;28;19920;-58
2022/12/17 21:45:25;;;;;;;;;;;;;;;-4.17;95.89;102774.28;5092696;28;19942;-57
2022/12/17 21:47:50;;;;;;;;;;;;;;;-4.17;95.79;102775.16;5087320;28;20400;-57
2022/12/17 21:50:15;;;;;;;;;;;;;;;-4.17;95.82;102780.34;5081703;28;19923;-57
2022/12/17 21:52:40;;;;;;;;;;;;;;;-4.15;95.92;102782.91;5077590;28;19924;-59
2022/12/17 21:55:05;;;;;;;;;;;;;;;-4.14;95.94;102800.16;5079695;28;19916;-59
2022/12/17 21:57:31;;;;;;;;;;;;;;;-4.14;95.92;102792.38;5080860;28;19976;-58
2022/12/17 21:59:56;;;;;;;;;;;;;;;-4.15;95.82;102801.91;5079502;28;19916;-57
2022/12/17 22:02:21;;;;;;;;;;;;;;;-4.16;95.69;102802.78;5081959;28;20383;-57
2022/12/17 22:04:46;;;;;;;;;;;;;;;-4.15;95.95;102799.31;5088429;28;19920;-59
2022/12/17 22:07:11;;;;;;;;;;;;;;;-4.18;95.80;102812.34;5091200;28;20088;-58
2022/12/17 22:09:36;;;;;;;;;;;;;;;-4.17;95.77;102813.19;5084041;28;19920;-60
2022/12/17 22:14:46;;;;;;;;;;;;;;;-4.20;95.63;102823.63;5077771;28;19939;-56
2022/12/17 22:17:11;;;;;;;;;;;;;;;-4.23;95.60;102821.09;5085901;28;19924;-57
2022/12/17 22:19:36;;;;;;;;;;;;;;;-4.27;95.73;102822.03;5084597;28;19920;-56
2022/12/17 22:22:01;;;;;;;;;;;;;;;-4.27;95.71;102828.09;5088961;28;19920;-58
2022/12/17 22:24:26;;;;;;;;;;;;;;;-4.26;95.59;102827.19;5083480;28;20042;-56
2022/12/17 22:26:58;;;;;;;;;;;;;;;-4.24;95.64;102825.44;5079236;28;19924;-58
2022/12/17 22:34:57;;;;;;;;;;;;;;;-4.24;95.79;102821.97;5076460;28;19998;-59
2022/12/17 22:37:22;;;;;;;;;;;;;;;-4.27;95.77;102822.91;5088407;28;19928;-61
2022/12/17 22:39:47;;;;;;;;;;;;;;;-4.28;95.88;102810.81;5086512;28;19918;-60
2022/12/17 22:44:56;;;;;;;;;;;;;;;-4.33;95.70;102819.56;5082131;28;20015;-58
2022/12/17 22:47:21;;;;;;;;;;;;;;;-4.34;95.67;102821.25;5088439;28;20007;-58
2022/12/17 22:49:47;;;;;;;;;;;;;;;-4.33;95.54;102829.94;5094084;28;20399;-56
2022/12/17 22:52:12;;;;;;;;;;;;;;;-4.34;95.68;102820.41;5088010;28;19977;-55
2022/12/17 22:54:37;;;;;;;;;;;;;;;-4.36;95.95;102805.72;5083304;28;19920;-53
2022/12/17 22:57:02;;;;;;;;;;;;;;;-4.39;95.72;102813.56;5097610;28;19970;-56
2022/12/17 22:59:27;;;;;;;;;;;;;;;-4.41;95.68;102812.75;5087569;28;19920;-55
2022/12/17 23:01:52;;;;;;;;;;;;;;;-4.43;95.44;102806.72;5083209;28;19923;-56
2022/12/17 23:04:18;;;;;;;;;;;;;;;-4.44;95.54;102812.81;5079401;28;19916;-54
2022/12/17 23:06:46;;;;;;;;;;;;;;;-4.45;95.38;102815.41;5075410;28;19917;-56
2022/12/17 23:09:14;;;;;;;;;;;;;;;-4.47;95.40;102809.41;5085264;28;19959;-54
2022/12/17 23:11:39;;;;;;;;;;;;;;;-4.50;95.40;102814.66;5089163;28;19927;-56
2022/12/17 23:14:05;;;;;;;;;;;;;;;-4.50;95.41;102806.88;5085216;28;19916;-55
2022/12/17 23:16:30;;;;;;;;;;;;;;;-4.51;95.61;102795.66;5084090;28;19920;-56
2022/12/17 23:18:58;;;;;;;;;;;;;;;-4.50;95.48;102791.31;5081024;28;19927;-56
2022/12/17 23:21:24;;;;;;;;;;;;;;;-4.51;95.28;102780.09;5087097;28;19919;-58
2022/12/17 23:23:50;;;;;;;;;;;;;;;-4.52;95.39;102793.06;5088097;28;19970;-55
2022/12/17 23:26:15;;;;;;;;;;;;;;;-4.52;95.45;102806.03;5085027;28;19917;-57
2022/12/17 23:28:41;;;;;;;;;;;;;;;-4.52;95.41;102804.31;5085720;28;19924;-58
2022/12/17 23:31:11;;;;;;;;;;;;;;;-4.52;95.39;102803.44;5086305;28;19924;-57
2022/12/17 23:33:36;;;;;;;;;;;;;;;-4.56;95.39;102805.25;5084500;28;19982;-55
2022/12/17 23:36:06;;;;;;;;;;;;;;;-4.56;95.38;102802.66;5086997;28;19962;-56
2022/12/17 23:38:32;;;;;;;;;;;;;;;-4.58;95.29;102800.97;5094251;28;20460;-55
2022/12/17 23:41:07;;;;;;;;;;;;;;;-4.59;95.27;102801.84;5085204;28;19920;-55
2022/12/17 23:43:33;;;;;;;;;;;;;;;-4.62;95.31;102794.13;5079896;28;19916;-54
2022/12/17 23:45:58;;;;;;;;;;;;;;;-4.64;95.25;102795.84;5083669;28;19924;-56
2022/12/17 23:48:23;;;;;;;;;;;;;;;-4.65;95.16;102788.97;5082000;28;19912;-56
2022/12/17 23:50:49;;;;;;;;;;;;;;;-4.67;95.26;102801.94;5082460;28;19924;-52
2022/12/17 23:53:14;;;;;;;;;;;;;;;-4.68;95.15;102813.19;5079722;28;19965;-55
2022/12/17 23:55:39;;;;;;;;;;;;;;;-4.69;95.06;102809.75;5079915;28;19928;-56
2022/12/17 23:58:04;;;;;;;;;;;;;;;-4.69;95.23;102816.66;5085580;28;19927;-55
